Terminal Aerodrome Forecast
Issued by NWS

Current Version | Previous Version | Graphics & Text | Print | Product List | Glossary On
Versions: 1 2 3 4 5 6 7 8 9 10 11 12 13 14 15 16 17 18 19 20 21 22 23 24 25 26 27 28 29 30 31 32
484
FTUS41 KRLX 290247 AAB
TAFCKB
TAF AMD
KCKB 290247Z 2903/2924 00000KT 3SM SHRA BR BKN004
      TEMPO 2903/2904 2SM SHRA SCT004
     FM290400 00000KT 1SM BR BKN004
     FM290700 00000KT 1/4SM FG VV001
     FM291300 00000KT 2SM BR BKN005
     FM291400 VRB03KT 6SM HZ BKN025
     FM291700 29004KT P6SM VCTS BKN050CB=

USA.gov is the U.S. government's official web portal to all federal, state and local government web resources and services.